Time;durP1;ratioP1;P1;durP2;ratioP2;P2;SDS_P1;SDS_P2;PMS_P1;PMS_P2;Temp;Humidity;BMP_temperature;BMP_pressure;BME280_temperature;BME280_humidity;BME280_pressure;Samples;Min_cycle;Max_cycle;Signal;HPM_P1;HPM_P2
2021/04/01 00:01:31;;;;;;;40.60;18.70;;;7.00;99.90;;;;;;20919186;28;20037;-49
2021/04/01 00:11:34;;;;;;;48.83;19.27;;;6.80;99.90;;;;;;20917764;28;20037;-48
2021/04/01 00:21:36;;;;;;;39.03;17.83;;;6.70;99.90;;;;;;20916833;28;20045;-49
2021/04/01 00:31:38;;;;;;;36.95;16.58;;;6.80;99.90;;;;;;20916531;28;20037;-49
2021/04/01 00:41:41;;;;;;;40.55;16.15;;;6.80;99.90;;;;;;20915369;28;20563;-48
2021/04/01 00:51:43;;;;;;;35.20;16.25;;;6.80;99.90;;;;;;20914516;28;20696;-48
2021/04/01 01:01:48;;;;;;;34.85;15.75;;;6.70;99.90;;;;;;20913647;28;20040;-48
2021/04/01 01:11:50;;;;;;;37.88;17.38;;;6.80;99.90;;;;;;20912913;28;20041;-49
2021/04/01 01:21:51;;;;;;;40.92;17.17;;;6.80;99.90;;;;;;20912763;28;20063;-48
2021/04/01 01:31:53;;;;;;;42.83;18.88;;;6.90;99.90;;;;;;20911152;28;20041;-51
2021/04/01 01:41:56;;;;;;;47.50;19.45;;;6.80;99.90;;;;;;20910556;28;20110;-51
2021/04/01 01:51:58;;;;;;;37.42;17.77;;;6.70;99.90;;;;;;20910782;28;20101;-49
2021/04/01 02:01:59;;;;;;;42.55;17.73;;;6.70;99.90;;;;;;20909053;28;20087;-48
2021/04/01 02:12:01;;;;;;;42.28;17.20;;;6.70;99.90;;;;;;20908546;28;20041;-49
2021/04/01 02:22:03;;;;;;;39.78;17.80;;;6.80;99.90;;;;;;20908687;28;20033;-50
2021/04/01 02:32:06;;;;;;;40.97;19.20;;;6.90;99.90;;;;;;20907422;28;20075;-48
2021/04/01 02:42:09;;;;;;;44.53;20.23;;;6.90;99.90;;;;;;20906809;28;20053;-48
2021/04/01 02:52:10;;;;;;;45.40;19.45;;;6.60;99.90;;;;;;20906459;28;20040;-49
2021/04/01 03:02:13;;;;;;;41.22;18.55;;;6.70;99.90;;;;;;20914555;28;20029;-50
2021/04/01 03:12:15;;;;;;;38.53;18.80;;;6.60;99.90;;;;;;20920616;28;20041;-50
2021/04/01 03:22:17;;;;;;;47.88;20.23;;;6.70;99.90;;;;;;20902291;28;20102;-49
2021/04/01 03:32:19;;;;;;;46.17;20.30;;;6.70;99.90;;;;;;20902191;28;20037;-49
2021/04/01 03:42:22;;;;;;;42.88;20.38;;;6.60;99.90;;;;;;20918309;28;20053;-49
2021/04/01 03:52:24;;;;;;;51.38;20.95;;;6.60;99.90;;;;;;20918276;28;20380;-48
2021/04/01 04:22:52;;;;;;;45.05;21.30;;;6.40;99.90;;;;;;20916405;28;20482;-51
2021/04/01 04:32:55;;;;;;;41.35;19.83;;;6.80;99.90;;;;;;20914786;28;20044;-51
2021/04/01 04:42:57;;;;;;;49.33;22.67;;;6.70;99.90;;;;;;20913746;28;20083;-49
2021/04/01 04:52:59;;;;;;;49.78;22.63;;;6.40;99.90;;;;;;20913661;28;20048;-50
2021/04/01 05:13:21;;;;;;;47.30;19.60;;;6.20;99.90;;;;;;20862407;28;20037;-50
2021/04/01 05:23:32;;;;;;;44.95;19.60;;;6.40;99.90;;;;;;20828764;28;20045;-50
2021/04/01 05:33:36;;;;;;;46.00;20.53;;;6.60;99.90;;;;;;20832603;28;20053;-50
2021/04/01 05:43:44;;;;;;;42.78;20.00;;;6.90;99.90;;;;;;20909155;28;20159;-50
2021/04/01 06:04:32;;;;;;;42.63;20.20;;;7.70;99.90;;;;;;20906781;28;20567;-49
2021/04/01 06:14:34;;;;;;;41.60;18.75;;;8.00;99.90;;;;;;20906924;28;20135;-49
2021/04/01 06:24:40;;;;;;;46.50;21.42;;;8.80;99.90;;;;;;20907654;28;20095;-50
2021/04/01 06:34:43;;;;;;;44.65;20.98;;;9.70;99.90;;;;;;20912877;28;20045;-50
2021/04/01 06:44:57;;;;;;;37.30;18.35;;;9.90;99.90;;;;;;20924088;28;20114;-50
2021/04/01 06:55:18;;;;;;;39.58;18.65;;;10.70;99.90;;;;;;20924703;28;20029;-49
2021/04/01 07:05:36;;;;;;;38.83;18.33;;;11.50;99.90;;;;;;20905949;28;20087;-49
2021/04/01 07:15:41;;;;;;;39.90;18.23;;;12.30;98.30;;;;;;20920065;28;20045;-50
2021/04/01 07:56:35;;;;;;;37.83;16.87;;;14.30;90.30;;;;;;20916574;28;20071;-50
2021/04/01 08:06:38;;;;;;;34.20;15.57;;;14.60;86.90;;;;;;20915998;28;20037;-50
2021/04/01 08:16:47;;;;;;;31.13;14.68;;;14.90;85.50;;;;;;20914967;28;20063;-50
2021/04/01 08:27:15;;;;;;;27.73;12.40;;;15.30;79.20;;;;;;20914353;28;20025;-50
2021/04/01 08:37:18;;;;;;;21.67;10.25;;;15.60;76.70;;;;;;20912896;28;20222;-50
2021/04/01 08:47:23;;;;;;;13.77;7.93;;;16.10;71.40;;;;;;20912665;28;20165;-50
2021/04/01 08:57:39;;;;;;;14.05;6.78;;;16.50;64.10;;;;;;20911334;28;20451;-52
2021/04/01 09:07:44;;;;;;;13.50;6.28;;;17.00;63.40;;;;;;20893342;28;20056;-51
2021/04/01 09:17:46;;;;;;;12.45;5.78;;;17.60;59.90;;;;;;20910056;28;20044;-49
2021/04/01 09:27:56;;;;;;;11.40;5.90;;;18.50;60.90;;;;;;20909327;28;20064;-52
2021/04/01 09:38:02;;;;;;;8.32;3.55;;;18.70;53.50;;;;;;20901660;28;20098;-50
2021/04/01 09:48:06;;;;;;;6.50;2.70;;;18.40;46.80;;;;;;20906544;28;20487;-50
2021/04/01 09:58:29;;;;;;;6.43;2.95;;;17.90;43.50;;;;;;20906148;28;20481;-49
2021/04/01 10:08:37;;;;;;;8.93;3.10;;;17.90;42.40;;;;;;20905407;28;20033;-51
2021/04/01 10:18:41;;;;;;;7.40;2.72;;;18.60;44.90;;;;;;20905143;28;20037;-50
2021/04/01 10:29:26;;;;;;;6.28;2.78;;;18.70;44.20;;;;;;20903734;28;20037;-52
2021/04/01 10:39:25;;;;;;;8.63;4.20;;;19.20;46.30;;;;;;20902694;28;20045;-53
2021/04/01 10:49:29;;;;;;;9.23;4.22;;;20.40;49.60;;;;;;20903938;28;20556;-50
2021/04/01 10:59:42;;;;;;;8.40;4.20;;;21.00;49.70;;;;;;20904876;28;20036;-50
2021/04/01 11:09:48;;;;;;;7.30;3.72;;;21.20;48.60;;;;;;20903766;28;20091;-51
2021/04/01 11:19:56;;;;;;;9.60;4.07;;;21.60;46.80;;;;;;20906730;28;20122;-52
2021/04/01 11:30:03;;;;;;;10.77;3.88;;;21.90;47.00;;;;;;20918418;28;20032;-53
2021/04/01 11:40:08;;;;;;;9.98;4.57;;;22.50;46.00;;;;;;20917516;28;20053;-51
2021/04/01 11:50:10;;;;;;;11.35;5.00;;;22.60;46.40;;;;;;20916745;28;20068;-53
2021/04/01 12:10:24;;;;;;;13.63;6.30;;;23.00;43.00;;;;;;20915694;28;20560;-54
